Time;durP1;ratioP1;P1;durP2;ratioP2;P2;SDS_P1;SDS_P2;PMS_P1;PMS_P2;Temp;Humidity;BMP_temperature;BMP_pressure;BME280_temperature;BME280_humidity;BME280_pressure;Samples;Min_cycle;Max_cycle;Signal;HPM_P1;HPM_P2
2022/01/31 00:00:17;;;;;;;16.95;4.00;;;3.90;99.90;;;;;;5138296;27;20049;-83
2022/01/31 00:03:02;;;;;;;22.80;4.10;;;;;;;;;;5123956;27;20110;-83
2022/01/31 00:05:47;;;;;;;14.15;3.80;;;3.90;99.90;;;;;;5153630;27;20083;-83
2022/01/31 00:08:31;;;;;;;20.98;5.05;;;3.90;99.90;;;;;;5137945;27;20114;-84
2022/01/31 00:11:16;;;;;;;20.70;4.70;;;3.90;99.90;;;;;;5153951;27;20164;-83
2022/01/31 00:14:10;;;;;;;19.67;4.30;;;5.60;99.90;;;;;;5154117;27;20120;-83
2022/01/31 00:16:55;;;;;;;23.70;4.53;;;;;;;;;;5137893;27;20041;-83
2022/01/31 00:19:40;;;;;;;27.23;5.03;;;3.80;99.90;;;;;;5155010;27;20053;-83
2022/01/31 00:22:24;;;;;;;17.33;5.00;;;4.20;99.90;;;;;;5158037;27;20476;-83
2022/01/31 00:25:09;;;;;;;;;;;3.80;99.90;;;;;;5142674;27;20547;-83
2022/01/31 00:27:53;;;;;;;18.35;5.13;;;4.60;99.90;;;;;;5157527;27;19922;-83
2022/01/31 00:30:37;;;;;;;16.55;3.95;;;4.70;99.90;;;;;;5141799;27;20045;-83
2022/01/31 00:33:21;;;;;;;;;;;4.80;99.90;;;;;;5158221;27;20045;-83
2022/01/31 00:36:05;;;;;;;15.25;4.13;;;5.30;99.90;;;;;;5157828;27;19957;-83
2022/01/31 00:38:49;;;;;;;16.73;4.85;;;3.90;99.90;;;;;;5141494;27;20054;-83
2022/01/31 00:41:33;;;;;;;;;;;4.60;99.90;;;;;;5142430;27;20107;-83
2022/01/31 00:44:23;;;;;;;20.58;4.90;;;4.90;99.90;;;;;;5141933;27;19967;-83
2022/01/31 00:47:18;;;;;;;20.83;5.60;;;4.00;99.90;;;;;;5157504;27;20037;-83
2022/01/31 00:50:08;;;;;;;24.95;5.25;;;3.90;99.90;;;;;;5141617;27;20061;-83
2022/01/31 00:52:52;;;;;;;14.63;5.00;;;;;;;;;;5128315;27;20046;-83
2022/01/31 00:55:37;;;;;;;21.75;6.10;;;3.90;99.90;;;;;;5127092;27;20087;-84
2022/01/31 00:58:21;;;;;;;21.98;6.30;;;3.90;99.90;;;;;;5157301;27;20603;-83
2022/01/31 01:01:05;;;;;;;18.98;5.25;;;4.00;99.90;;;;;;5157462;27;20065;-83
2022/01/31 01:03:49;;;;;;;;;;;3.90;99.90;;;;;;5141491;27;20060;-83
2022/01/31 01:06:33;;;;;;;24.60;6.72;;;;;;;;;;5141678;27;19922;-83
2022/01/31 01:09:18;;;;;;;22.40;6.70;;;;;;;;;;5141492;27;20083;-82
2022/01/31 01:12:02;;;;;;;27.45;7.15;;;3.80;99.90;;;;;;5140965;27;20505;-83
2022/01/31 01:14:49;;;;;;;19.02;7.13;;;3.80;99.90;;;;;;5126482;27;20045;-83
2022/01/31 01:17:33;;;;;;;26.52;8.75;;;3.80;99.90;;;;;;5157065;27;20552;-83
2022/01/31 01:20:17;;;;;;;22.90;6.60;;;4.90;99.90;;;;;;5141132;27;20086;-82
2022/01/31 01:23:01;;;;;;;16.90;6.68;;;3.80;99.90;;;;;;5156462;27;20033;-83
2022/01/31 01:25:46;;;;;;;;;;;3.80;99.90;;;;;;5126647;27;20459;-83
2022/01/31 01:28:31;;;;;;;24.02;7.45;;;5.30;99.90;;;;;;5156821;27;19918;-83
2022/01/31 01:31:15;;;;;;;14.88;6.65;;;3.80;99.90;;;;;;5140080;27;20041;-83
2022/01/31 01:34:00;;;;;;;17.02;7.72;;;4.00;99.90;;;;;;5126113;27;20038;-82
2022/01/31 01:36:46;;;;;;;20.67;10.10;;;4.90;99.90;;;;;;5140451;27;20148;-83
2022/01/31 01:39:31;;;;;;;25.23;9.02;;;5.20;99.90;;;;;;5156398;27;20083;-83
2022/01/31 01:42:15;;;;;;;23.60;9.90;;;5.60;99.90;;;;;;5126271;27;20451;-83
2022/01/31 01:44:59;;;;;;;;;;;3.70;99.90;;;;;;5156305;27;20042;-84
2022/01/31 01:47:44;;;;;;;23.65;10.65;;;4.70;99.90;;;;;;5140471;27;19917;-85
2022/01/31 01:50:29;;;;;;;31.63;10.77;;;;;;;;;;5140621;27;20494;-84
2022/01/31 01:53:14;;;;;;;21.10;10.18;;;3.50;99.90;;;;;;5126058;27;20049;-84
2022/01/31 01:55:59;;;;;;;29.40;11.93;;;;;;;;;;5155808;27;20079;-84
2022/01/31 01:58:44;;;;;;;29.15;11.63;;;3.50;99.90;;;;;;5140206;27;20159;-85
2022/01/31 02:01:29;;;;;;;25.35;11.43;;;;;;;;;;5156228;27;20512;-85
2022/01/31 02:04:13;;;;;;;29.23;13.07;;;3.30;99.90;;;;;;5140467;27;20150;-86
2022/01/31 02:06:57;;;;;;;;;;;3.30;99.90;;;;;;5140269;27;20569;-87
2022/01/31 02:09:45;;;;;;;23.30;11.85;;;;;;;;;;5140406;27;20002;-87
2022/01/31 02:12:37;;;;;;;20.57;9.90;;;3.20;99.90;;;;;;5155981;27;20037;-88
2022/01/31 02:15:25;;;;;;;25.33;11.90;;;;;;;;;;5140328;27;20034;-88
2022/01/31 02:18:10;;;;;;;19.10;10.82;;;;;;;;;;5142635;27;20565;-96
2022/01/31 02:20:54;;;;;;;22.03;10.70;;;;;;;;;;5153295;27;20046;-96
2022/01/31 02:23:41;;;;;;;17.70;10.43;;;2.90;99.90;;;;;;5141264;27;20064;-93
2022/01/31 02:26:26;;;;;;;19.60;10.07;;;4.90;99.90;;;;;;5141158;27;20041;-91
2022/01/31 02:29:13;;;;;;;24.00;12.17;;;2.90;99.90;;;;;;5140598;27;20073;-93
2022/01/31 02:31:57;;;;;;;28.02;12.68;;;4.00;99.90;;;;;;5137998;27;20041;-93
2022/01/31 02:34:42;;;;;;;24.90;12.37;;;4.00;99.90;;;;;;5141016;27;20038;-91
2022/01/31 02:37:26;;;;;;;34.85;13.13;;;4.30;99.90;;;;;;5140791;27;20042;-92
2022/01/31 02:40:10;;;;;;;26.03;12.70;;;2.90;99.90;;;;;;5155750;27;20108;-92
2022/01/31 02:42:54;;;;;;;18.20;11.03;;;3.00;99.90;;;;;;5155577;27;20091;-90
2022/01/31 02:45:39;;;;;;;24.33;12.27;;;3.00;99.90;;;;;;5140496;27;20467;-90
2022/01/31 02:48:25;;;;;;;25.03;11.93;;;4.30;99.90;;;;;;5125678;27;20065;-89
2022/01/31 02:51:12;;;;;;;17.93;10.73;;;;;;;;;;5140002;27;20594;-89
2022/01/31 02:53:56;;;;;;;19.77;10.03;;;;;;;;;;5139246;27;20041;-89
2022/01/31 02:56:41;;;;;;;23.47;10.30;;;;;;;;;;5125399;27;20452;-88
2022/01/31 02:59:25;;;;;;;22.43;10.67;;;3.10;99.90;;;;;;5139826;27;20410;-90
2022/01/31 03:02:09;;;;;;;21.63;9.13;;;3.20;99.90;;;;;;5154801;27;20082;-88
2022/01/31 03:04:54;;;;;;;19.77;11.13;;;3.10;99.90;;;;;;5139494;27;20041;-86
2022/01/31 03:07:38;;;;;;;17.37;8.60;;;3.20;99.90;;;;;;5110509;27;20500;-86
2022/01/31 03:10:23;;;;;;;16.73;8.30;;;;;;;;;;5125250;27;20073;-85
2022/01/31 03:13:08;;;;;;;17.83;8.20;;;3.20;99.90;;;;;;5154918;27;20038;-87
2022/01/31 03:15:52;;;;;;;12.90;7.80;;;;;;;;;;5155044;27;20037;-85
2022/01/31 03:18:37;;;;;;;20.00;9.13;;;3.30;99.90;;;;;;5139629;27;20033;-85
2022/01/31 03:21:21;;;;;;;14.83;8.07;;;3.30;99.90;;;;;;5139199;27;20038;-86
2022/01/31 03:24:06;;;;;;;11.88;6.97;;;5.10;99.90;;;;;;5154714;27;20042;-85
2022/01/31 03:26:50;;;;;;;13.30;7.43;;;3.40;99.90;;;;;;5139385;27;20078;-85
2022/01/31 03:29:35;;;;;;;16.90;8.80;;;3.40;99.90;;;;;;5154831;27;20046;-86
2022/01/31 03:32:19;;;;;;;21.67;7.13;;;3.50;99.90;;;;;;5124729;27;20038;-85
2022/01/31 03:35:04;;;;;;;;;;;3.50;99.90;;;;;;5154875;27;20417;-85
2022/01/31 03:37:49;;;;;;;12.77;6.70;;;3.60;99.90;;;;;;5139198;27;19967;-86
2022/01/31 03:40:32;;;;;;;;;;;3.70;99.90;;;;;;5139667;27;20046;-85
2022/01/31 03:43:17;;;;;;;22.50;7.05;;;5.00;99.90;;;;;;5138689;27;19917;-86
2022/01/31 03:46:02;;;;;;;21.38;7.97;;;3.90;99.90;;;;;;5138811;27;20045;-89
2022/01/31 03:48:46;;;;;;;22.48;8.35;;;4.00;99.90;;;;;;5138949;27;20047;-86
2022/01/31 03:51:31;;;;;;;21.30;6.38;;;4.50;99.90;;;;;;5117745;27;20506;-86
2022/01/31 03:54:15;;;;;;;20.83;6.25;;;4.20;99.90;;;;;;5153521;27;20083;-85
2022/01/31 03:57:00;;;;;;;24.98;7.10;;;;;;;;;;5138846;27;20087;-86
2022/01/31 03:59:44;;;;;;;29.05;9.20;;;4.40;99.90;;;;;;5138617;27;20050;-85
2022/01/31 04:02:28;;;;;;;29.13;6.05;;;5.10;99.90;;;;;;5138490;27;20440;-86
2022/01/31 04:05:13;;;;;;;28.40;5.63;;;;;;;;;;5138488;27;20052;-86
2022/01/31 04:07:58;;;;;;;26.90;5.82;;;4.80;99.90;;;;;;5138136;27;20547;-88
2022/01/31 04:10:42;;;;;;;26.00;6.07;;;5.70;99.90;;;;;;5154324;27;20119;-87
2022/01/31 04:13:26;;;;;;;36.25;7.75;;;5.20;99.90;;;;;;5153845;27;20045;-86
2022/01/31 04:16:10;;;;;;;22.58;3.92;;;5.30;99.90;;;;;;5153896;27;20086;-85
2022/01/31 04:18:55;;;;;;;26.13;4.07;;;5.30;99.90;;;;;;5154075;27;20092;-87
2022/01/31 04:21:39;;;;;;;21.92;4.47;;;5.40;99.90;;;;;;5154256;27;20084;-86
2022/01/31 04:24:30;;;;;;;17.33;2.80;;;5.40;99.90;;;;;;5123624;27;20079;-86
2022/01/31 04:27:18;;;;;;;10.35;2.60;;;;;;;;;;5153721;27;20096;-87
2022/01/31 04:30:06;;;;;;;17.38;3.22;;;5.50;99.90;;;;;;5138440;27;20505;-86
2022/01/31 04:32:50;;;;;;;16.60;2.58;;;5.50;99.90;;;;;;5124415;27;20378;-86
2022/01/31 04:35:35;;;;;;;17.45;2.88;;;6.00;99.90;;;;;;5123935;27;20168;-86
2022/01/31 04:38:20;;;;;;;11.77;3.20;;;5.50;99.90;;;;;;5137882;27;20091;-86
2022/01/31 04:41:04;;;;;;;11.30;1.90;;;5.30;99.90;;;;;;5138417;27;20130;-87
2022/01/31 04:43:50;;;;;;;13.45;2.88;;;;;;;;;;5154010;27;20089;-85
2022/01/31 04:46:35;;;;;;;20.75;3.22;;;5.30;99.90;;;;;;5153730;27;20049;-86
2022/01/31 04:49:20;;;;;;;20.35;3.08;;;5.30;99.90;;;;;;5123331;27;20522;-86
2022/01/31 04:52:04;;;;;;;19.27;3.72;;;5.90;99.90;;;;;;5138343;27;20506;-87
2022/01/31 04:54:48;;;;;;;22.65;3.92;;;5.20;99.90;;;;;;5138216;27;20448;-86
2022/01/31 04:57:32;;;;;;;;;;;5.10;99.90;;;;;;5153948;27;20176;-85
2022/01/31 05:00:17;;;;;;;18.33;3.00;;;5.80;99.90;;;;;;5137758;27;19936;-86
2022/01/31 05:03:02;;;;;;;21.02;3.20;;;5.00;99.90;;;;;;5137909;27;20092;-86
2022/01/31 05:05:46;;;;;;;21.58;3.75;;;5.00;99.90;;;;;;5138408;27;20042;-86
2022/01/31 05:08:33;;;;;;;15.52;3.50;;;5.00;99.90;;;;;;5141389;27;20146;-85
2022/01/31 05:11:17;;;;;;;18.63;5.07;;;5.70;99.90;;;;;;5141545;27;20452;-87
2022/01/31 05:14:02;;;;;;;16.83;2.65;;;5.00;99.90;;;;;;5127227;27;20088;-87
2022/01/31 05:16:46;;;;;;;21.45;2.97;;;5.00;99.90;;;;;;5141881;27;20042;-88
2022/01/31 05:19:30;;;;;;;23.00;4.20;;;5.00;99.90;;;;;;5126596;27;20099;-88
2022/01/31 05:22:15;;;;;;;21.67;3.80;;;5.00;99.90;;;;;;5141209;27;20538;-89
2022/01/31 05:24:59;;;;;;;12.95;1.83;;;5.00;99.90;;;;;;5141711;27;20118;-87
2022/01/31 05:27:43;;;;;;;7.32;1.70;;;4.90;99.90;;;;;;5112778;27;20060;-86
2022/01/31 05:30:27;;;;;;;;;;;4.90;99.90;;;;;;5126784;27;20049;-87
2022/01/31 05:33:11;;;;;;;10.13;1.75;;;4.90;99.90;;;;;;5141238;27;19918;-86
2022/01/31 05:35:56;;;;;;;5.75;1.52;;;4.80;99.90;;;;;;5157141;27;20099;-86
2022/01/31 05:38:40;;;;;;;11.50;1.77;;;4.80;99.90;;;;;;5140845;27;20041;-86
2022/01/31 05:41:25;;;;;;;8.23;1.50;;;5.60;99.90;;;;;;5126327;27;20054;-88
2022/01/31 05:44:08;;;;;;;;;;;4.90;99.90;;;;;;5141386;27;20065;-86
2022/01/31 05:46:53;;;;;;;19.65;3.80;;;4.80;99.90;;;;;;5141303;27;19960;-87
2022/01/31 05:49:38;;;;;;;;;;;4.50;99.90;;;;;;5140715;27;20058;-86
2022/01/31 05:52:22;;;;;;;8.15;1.50;;;4.50;99.90;;;;;;5156278;27;20014;-86
2022/01/31 05:55:06;;;;;;;;;;;4.50;99.90;;;;;;5141292;27;20056;-87
2022/01/31 05:57:51;;;;;;;3.85;1.15;;;;;;;;;;5140830;27;19917;-86
2022/01/31 06:00:36;;;;;;;8.57;1.90;;;4.40;99.90;;;;;;5143917;27;20046;-85
2022/01/31 06:03:20;;;;;;;9.40;1.40;;;4.60;99.90;;;;;;5135135;27;20087;-87
2022/01/31 06:06:04;;;;;;;5.38;1.55;;;4.40;99.90;;;;;;5119937;27;20087;-87
2022/01/31 06:08:48;;;;;;;8.90;1.77;;;6.00;99.90;;;;;;5146204;27;20447;-87
2022/01/31 06:11:34;;;;;;;9.40;1.60;;;4.40;99.90;;;;;;5140196;27;20095;-86
2022/01/31 06:14:18;;;;;;;6.88;1.58;;;4.60;99.90;;;;;;5125960;27;20045;-86
2022/01/31 06:17:03;;;;;;;14.13;2.63;;;4.40;99.90;;;;;;5139808;27;20041;-86
2022/01/31 06:19:48;;;;;;;12.60;1.73;;;;;;;;;;5125332;27;20141;-86
2022/01/31 06:22:32;;;;;;;11.93;1.90;;;4.40;99.90;;;;;;5138713;27;20071;-89
2022/01/31 06:25:16;;;;;;;13.52;2.80;;;;;;;;;;5139249;27;20497;-87
2022/01/31 06:28:01;;;;;;;8.30;1.60;;;4.40;99.90;;;;;;5140073;27;20053;-87
2022/01/31 06:30:45;;;;;;;14.50;1.90;;;;;;;;;;5139464;27;20049;-86
2022/01/31 06:33:30;;;;;;;8.13;1.80;;;4.50;99.90;;;;;;5139004;27;20079;-87
2022/01/31 06:36:13;;;;;;;;;;;4.80;99.90;;;;;;5149950;27;20547;-86
2022/01/31 06:38:58;;;;;;;14.90;2.45;;;4.50;99.90;;;;;;5137946;27;19972;-87
2022/01/31 06:41:42;;;;;;;16.05;2.50;;;4.40;99.90;;;;;;5139306;27;20046;-87
2022/01/31 06:44:27;;;;;;;17.15;2.35;;;4.80;99.90;;;;;;5138713;27;20394;-88
2022/01/31 06:47:11;;;;;;;14.43;2.45;;;;;;;;;;5139613;27;20440;-86
2022/01/31 06:49:55;;;;;;;20.38;2.38;;;4.60;99.90;;;;;;5155138;27;20382;-85
2022/01/31 06:52:41;;;;;;;15.23;1.88;;;4.60;99.90;;;;;;5139009;27;20048;-86
2022/01/31 06:55:28;;;;;;;9.32;3.10;;;;;;;;;;5124927;27;20033;-89
2022/01/31 06:58:12;;;;;;;14.88;2.13;;;4.70;99.90;;;;;;5139761;27;20054;-86
2022/01/31 07:00:58;;;;;;;18.15;2.75;;;4.70;99.90;;;;;;5139470;27;20050;-85
2022/01/31 07:03:42;;;;;;;14.40;2.85;;;4.70;99.90;;;;;;5110096;27;20078;-86
2022/01/31 07:06:27;;;;;;;11.77;2.22;;;;;;;;;;5139003;27;20037;-87
2022/01/31 07:09:12;;;;;;;10.52;1.95;;;4.70;99.90;;;;;;5124457;27;20080;-86
2022/01/31 07:11:59;;;;;;;10.88;2.50;;;5.90;99.90;;;;;;5139391;27;20042;-86
2022/01/31 07:14:44;;;;;;;8.95;2.03;;;4.90;99.90;;;;;;5138446;27;20083;-87
2022/01/31 07:17:30;;;;;;;10.70;1.85;;;4.80;99.90;;;;;;5154644;27;20079;-89
2022/01/31 07:20:21;;;;;;;14.75;2.33;;;4.80;99.90;;;;;;5120802;27;20564;-87
2022/01/31 07:23:15;;;;;;;6.03;1.83;;;5.60;99.90;;;;;;5151876;27;20052;-87
2022/01/31 07:26:00;;;;;;;8.70;1.77;;;5.10;99.90;;;;;;5134764;27;20038;-87
2022/01/31 07:28:44;;;;;;;7.85;1.95;;;;;;;;;;5131706;27;20402;-87
2022/01/31 07:31:28;;;;;;;8.75;2.38;;;4.80;99.90;;;;;;5151169;27;20042;-86
2022/01/31 07:34:15;;;;;;;11.88;2.78;;;5.70;99.90;;;;;;5137574;27;20083;-87
2022/01/31 07:36:59;;;;;;;11.85;2.55;;;;;;;;;;5145782;27;20489;-86
2022/01/31 07:39:47;;;;;;;13.43;1.92;;;4.80;99.90;;;;;;5136022;27;20114;-87
2022/01/31 07:42:31;;;;;;;10.35;1.45;;;6.20;99.90;;;;;;5130858;27;20382;-90
2022/01/31 07:45:15;;;;;;;8.43;2.20;;;4.80;99.90;;;;;;5140085;27;20046;-87
2022/01/31 07:48:00;;;;;;;13.23;2.05;;;5.60;99.90;;;;;;5124539;27;20089;-87
2022/01/31 07:50:44;;;;;;;11.18;1.60;;;6.50;99.90;;;;;;5123098;27;20417;-87
2022/01/31 07:53:28;;;;;;;14.90;2.42;;;4.80;99.90;;;;;;5154247;27;20459;-86
2022/01/31 07:56:15;;;;;;;9.52;2.05;;;;;;;;;;5154543;27;20037;-87
2022/01/31 07:58:59;;;;;;;17.63;2.00;;;4.80;99.90;;;;;;5137572;27;20065;-85
2022/01/31 08:01:43;;;;;;;;;;;4.80;99.90;;;;;;5144007;27;20493;-87
2022/01/31 08:04:27;;;;;;;13.38;2.45;;;4.70;99.90;;;;;;5146135;27;19958;-88
2022/01/31 08:07:12;;;;;;;8.80;1.85;;;4.80;99.90;;;;;;5123904;27;20099;-86
2022/01/31 08:09:57;;;;;;;14.32;2.47;;;;;;;;;;5137301;27;20188;-84
2022/01/31 08:12:42;;;;;;;13.95;2.58;;;4.80;99.90;;;;;;5134241;27;20030;-87
2022/01/31 08:15:29;;;;;;;16.63;2.15;;;5.00;99.90;;;;;;5153564;27;20038;-87
2022/01/31 08:18:14;;;;;;;18.02;3.78;;;5.00;99.90;;;;;;5123992;27;20114;-88
2022/01/31 08:20:59;;;;;;;17.67;2.92;;;5.00;99.90;;;;;;5137543;27;20081;-88
2022/01/31 08:23:44;;;;;;;9.55;2.15;;;;;;;;;;5137319;27;20038;-89
2022/01/31 08:26:28;;;;;;;16.25;2.50;;;5.00;99.90;;;;;;5138161;27;20440;-88
2022/01/31 08:29:36;;;;;;;17.02;2.58;;;5.20;99.90;;;;;;5137895;27;20477;-88
2022/01/31 08:32:33;;;;;;;17.88;3.22;;;5.10;99.90;;;;;;5141560;27;20057;-87
2022/01/31 08:38:20;;;;;;;20.90;2.88;;;5.20;99.90;;;;;;5143544;27;20038;-88
2022/01/31 08:41:06;;;;;;;18.50;2.75;;;5.10;99.90;;;;;;5140476;27;20054;-87
2022/01/31 08:43:51;;;;;;;17.35;3.30;;;5.30;99.90;;;;;;5141656;27;20398;-87
2022/01/31 08:46:39;;;;;;;11.95;2.50;;;5.30;99.90;;;;;;5141991;27;20100;-87
2022/01/31 08:49:23;;;;;;;20.63;3.50;;;5.30;99.90;;;;;;5157476;27;20125;-88
2022/01/31 08:52:07;;;;;;;11.48;1.90;;;;;;;;;;5124957;27;20072;-87
2022/01/31 08:54:52;;;;;;;11.05;2.85;;;5.40;99.90;;;;;;5156459;27;20041;-87
2022/01/31 08:57:36;;;;;;;8.60;1.70;;;5.40;99.90;;;;;;5145349;27;20037;-87
2022/01/31 09:00:33;;;;;;;13.85;3.95;;;5.50;99.90;;;;;;5114822;27;20094;-87
2022/01/31 09:03:33;;;;;;;15.98;2.83;;;6.30;99.90;;;;;;5141572;27;20106;-88
2022/01/31 09:06:19;;;;;;;14.70;2.80;;;5.50;99.90;;;;;;5157354;27;20038;-87
2022/01/31 09:09:16;;;;;;;11.88;2.47;;;5.60;99.90;;;;;;5156647;27;20041;-88
2022/01/31 09:12:02;;;;;;;11.07;1.95;;;5.60;99.90;;;;;;5141248;27;20523;-87
2022/01/31 09:14:47;;;;;;;6.63;2.03;;;;;;;;;;5156587;27;20401;-88
2022/01/31 09:17:32;;;;;;;15.70;2.17;;;5.70;99.90;;;;;;5141079;27;20030;-87
2022/01/31 09:20:16;;;;;;;15.95;2.35;;;5.70;99.90;;;;;;5156940;27;20505;-87
2022/01/31 09:23:02;;;;;;;7.68;1.55;;;6.30;99.90;;;;;;5140359;27;20058;-87
2022/01/31 09:25:47;;;;;;;10.48;1.67;;;5.80;99.90;;;;;;5147409;27;20034;-87
2022/01/31 09:28:31;;;;;;;11.50;2.17;;;6.90;99.90;;;;;;5126923;27;20087;-87
2022/01/31 09:31:15;;;;;;;;;;;6.10;99.90;;;;;;5141536;27;20046;-89
2022/01/31 09:33:59;;;;;;;8.52;1.80;;;7.00;99.90;;;;;;5140632;27;19918;-89
2022/01/31 09:36:43;;;;;;;13.95;2.22;;;6.10;99.90;;;;;;5140995;27;20052;-88
2022/01/31 09:39:28;;;;;;;12.77;2.20;;;;;;;;;;5141008;27;20050;-88
2022/01/31 09:42:15;;;;;;;15.98;2.08;;;6.20;99.90;;;;;;5141006;27;20053;-88
2022/01/31 09:50:42;;;;;;;9.00;2.30;;;6.30;99.90;;;;;;5156904;27;20057;-88
2022/01/31 09:53:26;;;;;;;;;;;6.40;99.90;;;;;;5155356;27;20034;-89
2022/01/31 09:56:13;;;;;;;11.18;1.90;;;6.40;99.90;;;;;;5155644;27;20331;-87
2022/01/31 09:58:58;;;;;;;4.95;1.20;;;6.50;99.90;;;;;;5155928;27;20118;-89
2022/01/31 10:01:55;;;;;;;11.52;1.73;;;6.40;99.90;;;;;;5155919;27;20455;-90
2022/01/31 10:04:45;;;;;;;6.65;1.70;;;6.70;99.90;;;;;;5156075;27;20034;-88
2022/01/31 10:07:44;;;;;;;10.77;1.77;;;7.70;99.90;;;;;;5140031;27;20034;-89
2022/01/31 10:10:30;;;;;;;7.55;1.80;;;6.90;99.90;;;;;;5148410;27;20535;-89
2022/01/31 10:16:43;;;;;;;7.18;1.65;;;6.90;99.90;;;;;;5137017;27;20042;-89
2022/01/31 10:19:28;;;;;;;11.32;1.60;;;7.70;99.90;;;;;;5135368;27;20033;-88
2022/01/31 10:22:15;;;;;;;19.08;2.13;;;6.90;99.90;;;;;;5149677;27;20443;-88
2022/01/31 10:25:02;;;;;;;15.10;2.05;;;7.00;99.90;;;;;;5139876;27;20583;-90
2022/01/31 10:27:48;;;;;;;11.38;1.98;;;7.00;99.90;;;;;;5156259;27;20083;-90
2022/01/31 10:30:33;;;;;;;8.27;2.05;;;7.10;99.90;;;;;;5135821;27;20516;-89
2022/01/31 10:33:18;;;;;;;10.27;1.83;;;8.50;99.90;;;;;;5119813;27;20104;-89
2022/01/31 10:36:02;;;;;;;10.77;2.17;;;7.80;99.90;;;;;;5135740;27;20042;-89
2022/01/31 10:39:06;;;;;;;10.05;2.35;;;7.00;99.90;;;;;;5120523;27;20502;-88
2022/01/31 10:45:20;;;;;;;17.05;2.20;;;7.10;99.90;;;;;;5138610;27;20042;-88
2022/01/31 10:57:22;;;;;;;10.85;1.90;;;7.30;99.90;;;;;;5155326;27;20042;-88
2022/01/31 11:00:07;;;;;;;13.23;1.60;;;7.70;99.90;;;;;;5156067;27;20065;-89
2022/01/31 11:02:51;;;;;;;9.48;1.90;;;7.30;99.90;;;;;;5151520;27;20048;-89
2022/01/31 11:05:36;;;;;;;7.57;1.80;;;7.30;99.90;;;;;;5138479;27;20091;-90
2022/01/31 11:08:20;;;;;;;;;;;7.40;99.90;;;;;;5153686;27;20037;-90
2022/01/31 11:11:06;;;;;;;8.13;1.55;;;7.30;99.90;;;;;;5135981;27;20327;-88
2022/01/31 11:13:51;;;;;;;10.93;2.20;;;7.30;99.90;;;;;;5146759;27;20422;-90
2022/01/31 11:16:37;;;;;;;9.30;1.90;;;7.40;99.90;;;;;;5117949;27;20065;-89
2022/01/31 11:19:32;;;;;;;6.63;2.05;;;7.50;99.90;;;;;;5118205;27;20053;-88
2022/01/31 11:22:17;;;;;;;13.38;2.13;;;7.40;99.90;;;;;;5133635;27;20083;-88
2022/01/31 11:25:08;;;;;;;8.20;1.80;;;7.40;99.90;;;;;;5117990;27;20095;-88
2022/01/31 11:27:57;;;;;;;11.13;2.13;;;7.40;99.90;;;;;;5134351;27;20068;-89
2022/01/31 11:30:42;;;;;;;10.00;2.83;;;7.80;99.90;;;;;;5118607;27;20091;-89
2022/01/31 11:33:26;;;;;;;9.82;2.35;;;;;;;;;;5116957;27;20064;-88
2022/01/31 11:36:10;;;;;;;13.38;3.65;;;7.60;99.90;;;;;;5118062;27;20489;-89
2022/01/31 11:38:56;;;;;;;10.38;2.25;;;7.60;99.90;;;;;;5118259;27;20584;-89
2022/01/31 11:41:55;;;;;;;13.05;3.05;;;7.60;99.90;;;;;;5118337;27;20081;-89
2022/01/31 11:44:57;;;;;;;12.00;2.53;;;7.60;99.90;;;;;;5133682;27;20038;-89
2022/01/31 11:47:43;;;;;;;14.13;2.65;;;7.70;99.90;;;;;;5117909;27;20096;-89
2022/01/31 11:50:28;;;;;;;18.58;3.25;;;7.70;99.90;;;;;;5118920;27;20139;-89
2022/01/31 11:53:13;;;;;;;12.32;3.65;;;;;;;;;;5131262;27;20037;-90
2022/01/31 11:56:22;;;;;;;17.08;2.88;;;7.80;99.90;;;;;;5118256;28;20081;-89
2022/01/31 11:59:12;;;;;;;22.83;4.32;;;7.80;99.90;;;;;;5123352;27;20079;-90
2022/01/31 12:01:59;;;;;;;16.08;2.60;;;8.50;99.90;;;;;;5154277;27;20130;-89
2022/01/31 12:04:44;;;;;;;18.00;2.70;;;9.20;99.90;;;;;;5154152;27;20485;-88
2022/01/31 12:07:30;;;;;;;14.90;2.50;;;7.90;99.90;;;;;;5151954;27;20123;-88
2022/01/31 12:10:28;;;;;;;16.73;3.90;;;8.00;99.90;;;;;;5153781;27;20063;-89
2022/01/31 12:13:47;;;;;;;15.93;2.17;;;8.80;99.90;;;;;;5135186;27;20490;-88
2022/01/31 12:16:43;;;;;;;15.85;2.60;;;8.00;99.90;;;;;;5080107;27;20084;-88
2022/01/31 12:22:47;;;;;;;19.80;3.65;;;8.00;99.90;;;;;;5137059;27;20038;-89
2022/01/31 12:25:32;;;;;;;10.25;2.25;;;;;;;;;;5137023;27;20030;-87
2022/01/31 12:28:38;;;;;;;15.30;2.70;;;8.00;99.90;;;;;;5136801;27;20037;-89
2022/01/31 12:31:37;;;;;;;10.43;2.30;;;7.90;99.90;;;;;;5151947;27;20069;-88
2022/01/31 12:34:21;;;;;;;14.50;2.67;;;7.80;99.90;;;;;;5149157;27;20050;-88
2022/01/31 12:37:23;;;;;;;16.48;4.53;;;8.20;99.90;;;;;;5144703;27;20513;-87
2022/01/31 12:40:30;;;;;;;14.52;2.30;;;7.80;99.90;;;;;;5152603;27;20037;-87
2022/01/31 12:43:47;;;;;;;20.30;3.13;;;7.90;99.90;;;;;;5134159;27;20087;-88
2022/01/31 12:46:29;;;;;;;10.38;1.80;;;7.90;99.90;;;;;;5144620;27;20041;-88
2022/01/31 12:49:13;;;;;;;19.55;3.70;;;7.90;99.90;;;;;;5141468;27;20080;-87
2022/01/31 12:51:59;;;;;;;18.35;3.08;;;9.30;99.90;;;;;;5142092;27;20065;-86
2022/01/31 12:54:52;;;;;;;15.95;3.70;;;7.90;99.90;;;;;;5136736;27;20042;-88
2022/01/31 12:57:50;;;;;;;12.50;1.92;;;8.00;99.90;;;;;;5136405;27;20489;-87
2022/01/31 13:00:43;;;;;;;20.08;3.50;;;8.30;99.90;;;;;;5135924;27;20073;-88
2022/01/31 13:03:35;;;;;;;14.20;3.25;;;7.90;99.90;;;;;;5133347;27;20084;-86
2022/01/31 13:06:25;;;;;;;14.90;3.72;;;7.90;99.90;;;;;;5140267;27;20534;-87
2022/01/31 13:09:25;;;;;;;15.43;3.15;;;7.90;99.90;;;;;;5141716;27;20440;-87
2022/01/31 13:12:15;;;;;;;19.08;2.60;;;7.90;99.90;;;;;;5120995;27;20034;-87
2022/01/31 13:14:59;;;;;;;12.88;2.60;;;7.90;99.90;;;;;;5136616;27;20042;-88
2022/01/31 13:17:45;;;;;;;;;;;7.90;99.90;;;;;;5106922;27;20122;-85
2022/01/31 13:20:30;;;;;;;17.27;3.38;;;7.90;99.90;;;;;;5120531;27;20310;-88
2022/01/31 13:23:14;;;;;;;17.65;4.05;;;8.90;99.90;;;;;;5144069;27;20053;-87
2022/01/31 13:26:05;;;;;;;14.02;2.38;;;7.90;99.90;;;;;;5133932;27;20140;-87
2022/01/31 13:28:50;;;;;;;14.48;3.15;;;;;;;;;;5127953;27;20489;-88
2022/01/31 13:31:41;;;;;;;18.00;2.65;;;7.90;99.90;;;;;;5141033;27;20120;-87
2022/01/31 13:34:34;;;;;;;13.10;2.55;;;7.90;99.90;;;;;;5138463;27;20079;-88
2022/01/31 13:37:44;;;;;;;11.45;2.95;;;7.90;99.90;;;;;;5141459;27;20045;-88
2022/01/31 13:40:45;;;;;;;18.27;2.50;;;8.00;99.90;;;;;;5138719;27;20077;-87
2022/01/31 13:43:34;;;;;;;18.00;3.15;;;8.00;99.90;;;;;;5140434;27;20042;-87
2022/01/31 13:46:30;;;;;;;17.95;3.60;;;8.00;99.90;;;;;;5156772;27;20117;-87
2022/01/31 13:49:18;;;;;;;18.63;3.97;;;7.90;99.90;;;;;;5156191;27;20107;-86
2022/01/31 13:52:03;;;;;;;17.25;3.15;;;8.00;99.90;;;;;;5141225;27;20073;-87
2022/01/31 13:54:47;;;;;;;18.40;3.55;;;;;;;;;;5146827;27;20035;-87
2022/01/31 13:57:31;;;;;;;13.85;2.85;;;;;;;;;;5132652;27;20034;-88
2022/01/31 14:00:17;;;;;;;16.63;3.95;;;7.90;99.90;;;;;;5133659;27;20563;-86
2022/01/31 14:03:12;;;;;;;20.75;3.92;;;7.80;99.90;;;;;;5125034;27;20041;-88
2022/01/31 14:06:02;;;;;;;18.13;3.75;;;7.70;99.90;;;;;;5135658;27;20038;-86
2022/01/31 14:08:55;;;;;;;24.20;3.00;;;7.70;99.90;;;;;;5134966;27;20073;-88
2022/01/31 14:11:44;;;;;;;15.25;3.08;;;7.70;99.90;;;;;;5119391;27;20145;-87
2022/01/31 14:14:28;;;;;;;19.67;3.45;;;8.00;99.90;;;;;;5119247;27;20038;-87
2022/01/31 14:17:12;;;;;;;;;;;7.60;99.90;;;;;;5135478;27;20092;-86
2022/01/31 14:19:58;;;;;;;13.50;2.85;;;7.70;99.90;;;;;;5122121;27;20302;-86
2022/01/31 14:22:42;;;;;;;18.27;4.13;;;8.80;99.90;;;;;;5139033;27;20038;-85
2022/01/31 14:25:42;;;;;;;18.83;2.58;;;7.60;99.90;;;;;;5134535;27;20042;-86
2022/01/31 14:28:42;;;;;;;13.52;2.70;;;7.60;99.90;;;;;;5134521;27;20046;-86
2022/01/31 14:31:35;;;;;;;20.27;3.60;;;7.60;99.90;;;;;;5134993;27;20121;-87
2022/01/31 14:34:23;;;;;;;18.80;3.00;;;9.00;99.90;;;;;;5138990;27;20033;-87
2022/01/31 14:37:09;;;;;;;14.57;2.90;;;7.50;99.90;;;;;;5148258;27;20045;-87
2022/01/31 14:43:09;;;;;;;16.95;3.65;;;7.50;99.90;;;;;;5136070;27;20119;-87
2022/01/31 14:49:04;;;;;;;17.48;2.75;;;7.40;99.90;;;;;;5138406;27;20072;-85
2022/01/31 14:51:51;;;;;;;10.48;2.17;;;7.40;99.90;;;;;;5118520;27;20122;-86
2022/01/31 14:54:38;;;;;;;13.48;1.98;;;7.30;99.90;;;;;;5141698;27;20042;-87
2022/01/31 14:57:23;;;;;;;8.02;1.92;;;;;;;;;;5139407;27;20037;-85
2022/01/31 15:00:13;;;;;;;12.65;1.80;;;7.30;99.90;;;;;;5120943;27;20060;-85
2022/01/31 15:02:57;;;;;;;8.27;2.15;;;7.30;99.90;;;;;;5118511;27;20030;-85
2022/01/31 15:05:42;;;;;;;9.57;2.15;;;;;;;;;;5137172;27;20084;-85
2022/01/31 15:08:27;;;;;;;15.18;1.92;;;;;;;;;;5122620;27;20034;-86
2022/01/31 15:11:12;;;;;;;8.27;1.58;;;7.10;99.90;;;;;;5154708;27;20451;-85
2022/01/31 15:13:58;;;;;;;11.05;3.47;;;7.10;99.90;;;;;;5122249;27;20113;-85
2022/01/31 15:16:43;;;;;;;8.88;1.92;;;7.00;99.90;;;;;;5138550;27;20049;-84
2022/01/31 15:19:28;;;;;;;14.10;3.58;;;7.00;99.90;;;;;;5152709;27;20045;-85
2022/01/31 15:22:13;;;;;;;9.52;2.60;;;6.90;99.90;;;;;;5138830;27;20090;-86
2022/01/31 15:24:57;;;;;;;10.48;2.67;;;6.90;99.90;;;;;;5137660;27;20087;-85